sensor_id;sensor_type;location;lat;lon;timestamp;temperature;humidity
7384;DHT22;3733;47.994;8.820;2022-08-23T00:01:11;14.80;99.90
7384;DHT22;3733;47.994;8.820;2022-08-23T00:03:39;14.70;99.90
7384;DHT22;3733;47.994;8.820;2022-08-23T00:06:05;14.70;99.90
7384;DHT22;3733;47.994;8.820;2022-08-23T00:08:31;14.70;99.90
7384;DHT22;3733;47.994;8.820;2022-08-23T00:10:58;14.70;99.90
7384;DHT22;3733;47.994;8.820;2022-08-23T00:13:24;14.60;99.90
7384;DHT22;3733;47.994;8.820;2022-08-23T00:15:50;14.60;99.90
7384;DHT22;3733;47.994;8.820;2022-08-23T00:18:16;14.60;99.90
7384;DHT22;3733;47.994;8.820;2022-08-23T00:20:43;14.60;99.90
7384;DHT22;3733;47.994;8.820;2022-08-23T00:23:09;14.50;99.90
7384;DHT22;3733;47.994;8.820;2022-08-23T00:25:35;14.50;99.90
7384;DHT22;3733;47.994;8.820;2022-08-23T00:28:00;14.50;99.90
7384;DHT22;3733;47.994;8.820;2022-08-23T00:30:27;14.50;99.90
7384;DHT22;3733;47.994;8.820;2022-08-23T00:32:53;14.40;99.90
7384;DHT22;3733;47.994;8.820;2022-08-23T00:35:19;14.40;99.90
7384;DHT22;3733;47.994;8.820;2022-08-23T00:37:45;14.40;99.90
7384;DHT22;3733;47.994;8.820;2022-08-23T00:40:14;14.40;99.90
7384;DHT22;3733;47.994;8.820;2022-08-23T00:42:44;14.30;99.90
7384;DHT22;3733;47.994;8.820;2022-08-23T00:45:47;14.40;99.90
7384;DHT22;3733;47.994;8.820;2022-08-23T00:48:33;14.30;99.90
7384;DHT22;3733;47.994;8.820;2022-08-23T00:54:23;14.30;99.90
7384;DHT22;3733;47.994;8.820;2022-08-23T00:56:51;14.20;99.90
7384;DHT22;3733;47.994;8.820;2022-08-23T00:59:17;14.20;99.90
7384;DHT22;3733;47.994;8.820;2022-08-23T01:01:42;14.10;99.90
7384;DHT22;3733;47.994;8.820;2022-08-23T01:04:10;14.10;99.90
7384;DHT22;3733;47.994;8.820;2022-08-23T01:06:52;14.10;99.90
7384;DHT22;3733;47.994;8.820;2022-08-23T01:09:20;14.00;99.90
7384;DHT22;3733;47.994;8.820;2022-08-23T01:12:01;14.00;99.90
7384;DHT22;3733;47.994;8.820;2022-08-23T01:14:31;14.00;99.90
7384;DHT22;3733;47.994;8.820;2022-08-23T01:17:12;13.90;99.90
7384;DHT22;3733;47.994;8.820;2022-08-23T01:19:49;13.80;99.90
7384;DHT22;3733;47.994;8.820;2022-08-23T01:22:32;13.80;99.90
7384;DHT22;3733;47.994;8.820;2022-08-23T01:25:00;13.80;99.90
7384;DHT22;3733;47.994;8.820;2022-08-23T01:27:27;13.80;99.90
7384;DHT22;3733;47.994;8.820;2022-08-23T01:29:52;13.70;99.90
7384;DHT22;3733;47.994;8.820;2022-08-23T01:32:18;13.70;99.90
7384;DHT22;3733;47.994;8.820;2022-08-23T01:34:44;13.70;99.90
7384;DHT22;3733;47.994;8.820;2022-08-23T01:37:10;13.70;99.90
7384;DHT22;3733;47.994;8.820;2022-08-23T01:39:36;13.60;99.90
7384;DHT22;3733;47.994;8.820;2022-08-23T01:42:02;13.70;99.90
7384;DHT22;3733;47.994;8.820;2022-08-23T01:44:28;13.60;99.90
7384;DHT22;3733;47.994;8.820;2022-08-23T01:46:54;13.70;99.90
7384;DHT22;3733;47.994;8.820;2022-08-23T01:49:20;13.60;99.90
7384;DHT22;3733;47.994;8.820;2022-08-23T01:51:45;13.70;99.90
7384;DHT22;3733;47.994;8.820;2022-08-23T01:54:12;13.60;99.90
7384;DHT22;3733;47.994;8.820;2022-08-23T01:56:39;13.50;99.90
7384;DHT22;3733;47.994;8.820;2022-08-23T01:59:07;13.50;99.90
7384;DHT22;3733;47.994;8.820;2022-08-23T02:01:33;13.50;99.90
7384;DHT22;3733;47.994;8.820;2022-08-23T02:03:59;13.50;99.90
7384;DHT22;3733;47.994;8.820;2022-08-23T02:06:26;13.50;99.90
7384;DHT22;3733;47.994;8.820;2022-08-23T02:08:52;13.50;99.90
7384;DHT22;3733;47.994;8.820;2022-08-23T02:11:29;13.50;99.90
7384;DHT22;3733;47.994;8.820;2022-08-23T02:13:57;13.50;99.90
7384;DHT22;3733;47.994;8.820;2022-08-23T02:16:29;13.40;99.90
7384;DHT22;3733;47.994;8.820;2022-08-23T02:18:55;13.40;99.90
7384;DHT22;3733;47.994;8.820;2022-08-23T02:21:22;13.40;99.90
7384;DHT22;3733;47.994;8.820;2022-08-23T02:23:48;13.40;99.90
7384;DHT22;3733;47.994;8.820;2022-08-23T02:26:16;13.40;99.90
7384;DHT22;3733;47.994;8.820;2022-08-23T02:28:42;13.40;99.90
7384;DHT22;3733;47.994;8.820;2022-08-23T02:31:07;13.30;99.90
7384;DHT22;3733;47.994;8.820;2022-08-23T02:33:33;13.30;99.90
7384;DHT22;3733;47.994;8.820;2022-08-23T02:35:59;13.30;99.90
7384;DHT22;3733;47.994;8.820;2022-08-23T02:38:24;13.20;99.90
7384;DHT22;3733;47.994;8.820;2022-08-23T02:40:50;13.20;99.90
7384;DHT22;3733;47.994;8.820;2022-08-23T02:43:17;13.20;99.90
7384;DHT22;3733;47.994;8.820;2022-08-23T02:45:42;13.20;99.90
7384;DHT22;3733;47.994;8.820;2022-08-23T02:48:10;13.20;99.90
7384;DHT22;3733;47.994;8.820;2022-08-23T02:50:36;13.20;99.90
7384;DHT22;3733;47.994;8.820;2022-08-23T02:53:02;13.10;99.90
7384;DHT22;3733;47.994;8.820;2022-08-23T02:55:28;13.10;99.90
7384;DHT22;3733;47.994;8.820;2022-08-23T02:57:54;13.00;99.90
7384;DHT22;3733;47.994;8.820;2022-08-23T03:00:20;13.00;99.90
7384;DHT22;3733;47.994;8.820;2022-08-23T03:02:46;13.00;99.90
7384;DHT22;3733;47.994;8.820;2022-08-23T03:05:13;13.00;99.90
7384;DHT22;3733;47.994;8.820;2022-08-23T03:07:39;13.00;99.90
7384;DHT22;3733;47.994;8.820;2022-08-23T03:10:06;12.90;99.90
7384;DHT22;3733;47.994;8.820;2022-08-23T03:12:33;12.90;99.90
7384;DHT22;3733;47.994;8.820;2022-08-23T03:14:59;12.90;99.90
7384;DHT22;3733;47.994;8.820;2022-08-23T03:17:25;12.90;99.90
7384;DHT22;3733;47.994;8.820;2022-08-23T03:19:51;12.90;99.90
7384;DHT22;3733;47.994;8.820;2022-08-23T03:22:18;12.90;99.90
7384;DHT22;3733;47.994;8.820;2022-08-23T03:24:44;12.90;99.90
7384;DHT22;3733;47.994;8.820;2022-08-23T03:27:10;12.90;99.90
7384;DHT22;3733;47.994;8.820;2022-08-23T03:29:36;12.90;99.90
7384;DHT22;3733;47.994;8.820;2022-08-23T03:32:02;12.90;99.90
7384;DHT22;3733;47.994;8.820;2022-08-23T03:34:29;12.80;99.90
7384;DHT22;3733;47.994;8.820;2022-08-23T03:36:55;12.80;99.90
7384;DHT22;3733;47.994;8.820;2022-08-23T03:39:20;12.80;99.90
7384;DHT22;3733;47.994;8.820;2022-08-23T03:41:46;12.70;99.90
7384;DHT22;3733;47.994;8.820;2022-08-23T03:44:12;12.70;99.90
7384;DHT22;3733;47.994;8.820;2022-08-23T03:46:38;12.70;99.90
7384;DHT22;3733;47.994;8.820;2022-08-23T03:49:04;12.60;99.90
7384;DHT22;3733;47.994;8.820;2022-08-23T03:51:30;12.60;99.90
7384;DHT22;3733;47.994;8.820;2022-08-23T03:53:59;12.60;99.90
7384;DHT22;3733;47.994;8.820;2022-08-23T03:56:30;12.50;99.90
7384;DHT22;3733;47.994;8.820;2022-08-23T03:58:58;12.60;99.90
7384;DHT22;3733;47.994;8.820;2022-08-23T04:01:24;12.50;99.90
7384;DHT22;3733;47.994;8.820;2022-08-23T04:03:50;12.50;99.90
7384;DHT22;3733;47.994;8.820;2022-08-23T04:06:16;12.50;99.90
7384;DHT22;3733;47.994;8.820;2022-08-23T04:08:43;12.50;99.90
7384;DHT22;3733;47.994;8.820;2022-08-23T04:11:10;12.50;99.90
7384;DHT22;3733;47.994;8.820;2022-08-23T04:13:37;12.50;99.90
7384;DHT22;3733;47.994;8.820;2022-08-23T04:16:04;12.50;99.90
7384;DHT22;3733;47.994;8.820;2022-08-23T04:18:30;12.40;99.90
7384;DHT22;3733;47.994;8.820;2022-08-23T04:20:58;12.40;99.90
7384;DHT22;3733;47.994;8.820;2022-08-23T04:23:24;12.30;99.90
7384;DHT22;3733;47.994;8.820;2022-08-23T04:25:53;12.30;99.90
7384;DHT22;3733;47.994;8.820;2022-08-23T04:28:19;12.30;99.90
7384;DHT22;3733;47.994;8.820;2022-08-23T04:30:44;12.30;99.90
7384;DHT22;3733;47.994;8.820;2022-08-23T04:33:10;12.30;99.90
7384;DHT22;3733;47.994;8.820;2022-08-23T04:35:36;12.30;99.90
7384;DHT22;3733;47.994;8.820;2022-08-23T04:38:02;12.30;99.90
7384;DHT22;3733;47.994;8.820;2022-08-23T04:40:27;12.30;99.90
7384;DHT22;3733;47.994;8.820;2022-08-23T04:43:11;12.30;99.90
7384;DHT22;3733;47.994;8.820;2022-08-23T04:45:38;12.20;99.90
7384;DHT22;3733;47.994;8.820;2022-08-23T04:48:05;12.30;99.90
7384;DHT22;3733;47.994;8.820;2022-08-23T04:50:31;12.30;99.90
7384;DHT22;3733;47.994;8.820;2022-08-23T04:52:57;12.30;99.90
7384;DHT22;3733;47.994;8.820;2022-08-23T04:55:23;12.30;99.90
7384;DHT22;3733;47.994;8.820;2022-08-23T04:57:49;12.30;99.90
7384;DHT22;3733;47.994;8.820;2022-08-23T05:00:15;12.30;99.90
7384;DHT22;3733;47.994;8.820;2022-08-23T05:02:41;12.30;99.90
7384;DHT22;3733;47.994;8.820;2022-08-23T05:05:08;12.30;99.90
7384;DHT22;3733;47.994;8.820;2022-08-23T05:07:36;12.30;99.90
7384;DHT22;3733;47.994;8.820;2022-08-23T05:10:06;12.30;99.90
7384;DHT22;3733;47.994;8.820;2022-08-23T05:12:32;12.30;99.90
7384;DHT22;3733;47.994;8.820;2022-08-23T05:14:58;12.30;99.90
7384;DHT22;3733;47.994;8.820;2022-08-23T05:17:24;12.40;99.90
7384;DHT22;3733;47.994;8.820;2022-08-23T05:19:50;12.40;99.90
7384;DHT22;3733;47.994;8.820;2022-08-23T05:22:15;12.50;99.90
7384;DHT22;3733;47.994;8.820;2022-08-23T05:24:41;12.50;99.90
7384;DHT22;3733;47.994;8.820;2022-08-23T05:27:06;12.60;99.90
7384;DHT22;3733;47.994;8.820;2022-08-23T05:29:32;12.70;99.90
7384;DHT22;3733;47.994;8.820;2022-08-23T05:31:57;12.70;99.90
7384;DHT22;3733;47.994;8.820;2022-08-23T05:34:23;12.80;99.90
7384;DHT22;3733;47.994;8.820;2022-08-23T05:36:50;12.90;99.90
7384;DHT22;3733;47.994;8.820;2022-08-23T05:39:17;12.90;99.90
7384;DHT22;3733;47.994;8.820;2022-08-23T05:41:42;13.00;99.90
7384;DHT22;3733;47.994;8.820;2022-08-23T05:44:09;13.00;99.90
7384;DHT22;3733;47.994;8.820;2022-08-23T05:46:36;13.10;99.90
7384;DHT22;3733;47.994;8.820;2022-08-23T05:49:01;13.10;99.90
7384;DHT22;3733;47.994;8.820;2022-08-23T05:51:30;13.10;99.90
7384;DHT22;3733;47.994;8.820;2022-08-23T05:54:04;13.20;99.90
7384;DHT22;3733;47.994;8.820;2022-08-23T05:56:33;13.30;99.90
7384;DHT22;3733;47.994;8.820;2022-08-23T05:59:01;13.30;99.90
7384;DHT22;3733;47.994;8.820;2022-08-23T06:01:29;13.40;99.90
7384;DHT22;3733;47.994;8.820;2022-08-23T06:03:57;13.40;99.90
7384;DHT22;3733;47.994;8.820;2022-08-23T06:06:22;13.50;99.90
7384;DHT22;3733;47.994;8.820;2022-08-23T06:08:48;13.50;99.90
7384;DHT22;3733;47.994;8.820;2022-08-23T06:11:23;13.60;99.90
7384;DHT22;3733;47.994;8.820;2022-08-23T06:13:54;13.60;99.90
7384;DHT22;3733;47.994;8.820;2022-08-23T06:16:32;13.70;99.90
7384;DHT22;3733;47.994;8.820;2022-08-23T06:18:59;13.80;99.90
7384;DHT22;3733;47.994;8.820;2022-08-23T06:21:27;13.80;99.90
7384;DHT22;3733;47.994;8.820;2022-08-23T06:23:54;13.80;99.90
7384;DHT22;3733;47.994;8.820;2022-08-23T06:28:48;14.00;99.90
7384;DHT22;3733;47.994;8.820;2022-08-23T06:31:14;14.10;99.90
7384;DHT22;3733;47.994;8.820;2022-08-23T06:33:41;14.20;99.90
7384;DHT22;3733;47.994;8.820;2022-08-23T06:36:09;14.20;99.90
7384;DHT22;3733;47.994;8.820;2022-08-23T06:38:36;14.30;99.90
7384;DHT22;3733;47.994;8.820;2022-08-23T06:41:07;14.40;99.90
7384;DHT22;3733;47.994;8.820;2022-08-23T06:43:34;14.50;99.90
7384;DHT22;3733;47.994;8.820;2022-08-23T06:46:21;14.60;99.90
7384;DHT22;3733;47.994;8.820;2022-08-23T06:48:47;14.70;99.90
7384;DHT22;3733;47.994;8.820;2022-08-23T06:51:38;14.80;99.90
7384;DHT22;3733;47.994;8.820;2022-08-23T06:54:09;14.90;99.90
7384;DHT22;3733;47.994;8.820;2022-08-23T06:56:36;15.00;99.90
7384;DHT22;3733;47.994;8.820;2022-08-23T06:59:03;15.00;99.90
7384;DHT22;3733;47.994;8.820;2022-08-23T07:04:06;15.20;99.90
7384;DHT22;3733;47.994;8.820;2022-08-23T07:06:33;15.30;99.90
7384;DHT22;3733;47.994;8.820;2022-08-23T07:08:59;15.40;99.90
7384;DHT22;3733;47.994;8.820;2022-08-23T07:11:25;15.50;99.90
7384;DHT22;3733;47.994;8.820;2022-08-23T07:13:51;15.50;99.90
7384;DHT22;3733;47.994;8.820;2022-08-23T07:16:18;15.60;99.90
7384;DHT22;3733;47.994;8.820;2022-08-23T07:18:45;15.70;99.90
7384;DHT22;3733;47.994;8.820;2022-08-23T07:21:11;15.80;99.90
7384;DHT22;3733;47.994;8.820;2022-08-23T07:23:38;16.00;99.80
7384;DHT22;3733;47.994;8.820;2022-08-23T07:26:10;16.10;99.20
7384;DHT22;3733;47.994;8.820;2022-08-23T07:28:37;16.20;99.40
7384;DHT22;3733;47.994;8.820;2022-08-23T07:33:42;16.40;97.20
7384;DHT22;3733;47.994;8.820;2022-08-23T07:36:09;16.60;96.90
7384;DHT22;3733;47.994;8.820;2022-08-23T07:38:35;16.70;96.30
7384;DHT22;3733;47.994;8.820;2022-08-23T07:41:04;16.80;94.80
7384;DHT22;3733;47.994;8.820;2022-08-23T07:43:33;16.90;93.70
7384;DHT22;3733;47.994;8.820;2022-08-23T07:45:59;17.00;93.30
7384;DHT22;3733;47.994;8.820;2022-08-23T07:48:25;17.10;93.00
7384;DHT22;3733;47.994;8.820;2022-08-23T07:50:55;17.20;94.10
7384;DHT22;3733;47.994;8.820;2022-08-23T07:53:22;17.30;95.20
7384;DHT22;3733;47.994;8.820;2022-08-23T07:55:47;17.40;95.20
7384;DHT22;3733;47.994;8.820;2022-08-23T07:58:13;17.60;94.80
7384;DHT22;3733;47.994;8.820;2022-08-23T08:00:39;17.70;94.60
7384;DHT22;3733;47.994;8.820;2022-08-23T08:03:05;17.90;94.80
7384;DHT22;3733;47.994;8.820;2022-08-23T08:05:31;18.00;93.70
7384;DHT22;3733;47.994;8.820;2022-08-23T08:07:57;18.10;91.70
7384;DHT22;3733;47.994;8.820;2022-08-23T08:10:23;18.20;90.20
7384;DHT22;3733;47.994;8.820;2022-08-23T08:12:48;18.30;88.20
7384;DHT22;3733;47.994;8.820;2022-08-23T08:15:15;18.40;85.20
7384;DHT22;3733;47.994;8.820;2022-08-23T08:17:41;18.50;82.60
7384;DHT22;3733;47.994;8.820;2022-08-23T08:20:07;18.70;79.50
7384;DHT22;3733;47.994;8.820;2022-08-23T08:22:33;18.80;77.70
7384;DHT22;3733;47.994;8.820;2022-08-23T08:24:59;18.90;73.70
7384;DHT22;3733;47.994;8.820;2022-08-23T08:27:26;19.00;72.10
7384;DHT22;3733;47.994;8.820;2022-08-23T08:29:51;19.10;69.90
7384;DHT22;3733;47.994;8.820;2022-08-23T08:32:17;19.20;68.90
7384;DHT22;3733;47.994;8.820;2022-08-23T08:34:42;19.40;67.00
7384;DHT22;3733;47.994;8.820;2022-08-23T08:37:08;19.50;65.70
7384;DHT22;3733;47.994;8.820;2022-08-23T08:39:34;19.60;67.60
7384;DHT22;3733;47.994;8.820;2022-08-23T08:49:55;20.20;66.90
7384;DHT22;3733;47.994;8.820;2022-08-23T08:52:27;20.40;66.10
7384;DHT22;3733;47.994;8.820;2022-08-23T08:55:02;20.50;66.00
7384;DHT22;3733;47.994;8.820;2022-08-23T08:57:31;20.70;65.80
7384;DHT22;3733;47.994;8.820;2022-08-23T09:00:06;20.80;64.30
7384;DHT22;3733;47.994;8.820;2022-08-23T09:02:34;20.90;64.10
7384;DHT22;3733;47.994;8.820;2022-08-23T09:05:03;21.10;59.40
7384;DHT22;3733;47.994;8.820;2022-08-23T09:18:39;21.70;54.40
7384;DHT22;3733;47.994;8.820;2022-08-23T09:21:07;21.90;54.50
7384;DHT22;3733;47.994;8.820;2022-08-23T09:23:37;22.10;53.80
7384;DHT22;3733;47.994;8.820;2022-08-23T09:28:43;22.40;53.90
7384;DHT22;3733;47.994;8.820;2022-08-23T09:31:10;22.60;52.70
7384;DHT22;3733;47.994;8.820;2022-08-23T09:33:42;22.70;52.40
7384;DHT22;3733;47.994;8.820;2022-08-23T09:36:20;22.90;52.30
7384;DHT22;3733;47.994;8.820;2022-08-23T09:39:01;23.00;51.20
7384;DHT22;3733;47.994;8.820;2022-08-23T09:41:45;23.10;50.50
7384;DHT22;3733;47.994;8.820;2022-08-23T09:44:13;23.30;50.10
7384;DHT22;3733;47.994;8.820;2022-08-23T09:47:04;23.40;48.90
7384;DHT22;3733;47.994;8.820;2022-08-23T09:49:31;23.50;48.00
7384;DHT22;3733;47.994;8.820;2022-08-23T09:52:08;23.50;48.60
7384;DHT22;3733;47.994;8.820;2022-08-23T09:54:36;23.60;48.00
7384;DHT22;3733;47.994;8.820;2022-08-23T09:57:05;23.60;46.50
7384;DHT22;3733;47.994;8.820;2022-08-23T09:59:37;23.70;47.10
7384;DHT22;3733;47.994;8.820;2022-08-23T10:02:04;23.80;46.30
7384;DHT22;3733;47.994;8.820;2022-08-23T10:04:43;23.90;45.70
7384;DHT22;3733;47.994;8.820;2022-08-23T10:07:28;24.00;45.70
7384;DHT22;3733;47.994;8.820;2022-08-23T10:10:31;24.00;44.80
7384;DHT22;3733;47.994;8.820;2022-08-23T10:13:00;24.10;45.20
7384;DHT22;3733;47.994;8.820;2022-08-23T10:15:53;24.20;44.50
7384;DHT22;3733;47.994;8.820;2022-08-23T10:23:50;24.40;42.60
7384;DHT22;3733;47.994;8.820;2022-08-23T10:26:26;24.40;43.60
7384;DHT22;3733;47.994;8.820;2022-08-23T10:40:55;24.90;45.00
7384;DHT22;3733;47.994;8.820;2022-08-23T10:45:59;24.90;43.30
7384;DHT22;3733;47.994;8.820;2022-08-23T10:48:40;25.00;41.90
7384;DHT22;3733;47.994;8.820;2022-08-23T10:51:21;25.10;43.10
7384;DHT22;3733;47.994;8.820;2022-08-23T10:53:53;25.20;43.70
7384;DHT22;3733;47.994;8.820;2022-08-23T10:56:21;25.30;44.30
7384;DHT22;3733;47.994;8.820;2022-08-23T10:58:59;25.20;41.20
7384;DHT22;3733;47.994;8.820;2022-08-23T11:01:35;25.30;40.80
7384;DHT22;3733;47.994;8.820;2022-08-23T11:04:13;25.30;42.90
7384;DHT22;3733;47.994;8.820;2022-08-23T11:06:47;25.40;44.10
7384;DHT22;3733;47.994;8.820;2022-08-23T11:22:21;25.70;42.50
7384;DHT22;3733;47.994;8.820;2022-08-23T11:25:05;25.90;42.70
7384;DHT22;3733;47.994;8.820;2022-08-23T11:27:41;26.10;43.80
7384;DHT22;3733;47.994;8.820;2022-08-23T11:33:14;26.50;44.00
7384;DHT22;3733;47.994;8.820;2022-08-23T11:35:45;26.60;43.40
7384;DHT22;3733;47.994;8.820;2022-08-23T11:38:13;26.70;42.10
7384;DHT22;3733;47.994;8.820;2022-08-23T11:43:31;27.00;42.20
7384;DHT22;3733;47.994;8.820;2022-08-23T11:46:33;27.10;43.40
7384;DHT22;3733;47.994;8.820;2022-08-23T11:57:51;27.70;42.40
7384;DHT22;3733;47.994;8.820;2022-08-23T12:08:31;28.20;38.80
7384;DHT22;3733;47.994;8.820;2022-08-23T12:11:01;28.30;38.30
7384;DHT22;3733;47.994;8.820;2022-08-23T12:14:30;28.30;38.70
7384;DHT22;3733;47.994;8.820;2022-08-23T12:23:59;28.70;39.40
7384;DHT22;3733;47.994;8.820;2022-08-23T12:29:06;28.60;39.30
7384;DHT22;3733;47.994;8.820;2022-08-23T12:31:50;28.60;39.60
7384;DHT22;3733;47.994;8.820;2022-08-23T12:39:51;28.90;38.90
7384;DHT22;3733;47.994;8.820;2022-08-23T12:42:31;28.70;37.80
7384;DHT22;3733;47.994;8.820;2022-08-23T12:45:18;28.40;38.20
7384;DHT22;3733;47.994;8.820;2022-08-23T12:47:59;28.30;38.50
7384;DHT22;3733;47.994;8.820;2022-08-23T12:50:36;28.40;38.80
7384;DHT22;3733;47.994;8.820;2022-08-23T12:53:13;28.50;38.70
7384;DHT22;3733;47.994;8.820;2022-08-23T12:55:45;28.80;39.60
7384;DHT22;3733;47.994;8.820;2022-08-23T12:58:14;29.10;38.30
7384;DHT22;3733;47.994;8.820;2022-08-23T13:00:56;29.30;37.60
7384;DHT22;3733;47.994;8.820;2022-08-23T13:03:30;29.40;36.90
7384;DHT22;3733;47.994;8.820;2022-08-23T13:06:03;29.40;37.40
7384;DHT22;3733;47.994;8.820;2022-08-23T13:11:05;29.70;37.60
7384;DHT22;3733;47.994;8.820;2022-08-23T13:13:32;29.80;37.10
7384;DHT22;3733;47.994;8.820;2022-08-23T13:16:00;30.00;37.10
7384;DHT22;3733;47.994;8.820;2022-08-23T13:18:32;30.10;36.00
7384;DHT22;3733;47.994;8.820;2022-08-23T13:23:57;30.40;36.20
7384;DHT22;3733;47.994;8.820;2022-08-23T13:29:22;30.70;35.60
7384;DHT22;3733;47.994;8.820;2022-08-23T13:31:57;30.80;34.90
7384;DHT22;3733;47.994;8.820;2022-08-23T13:34:44;31.00;34.00
7384;DHT22;3733;47.994;8.820;2022-08-23T13:37:33;31.00;32.70
7384;DHT22;3733;47.994;8.820;2022-08-23T13:40:05;31.00;34.00
7384;DHT22;3733;47.994;8.820;2022-08-23T13:45:15;31.30;33.60
7384;DHT22;3733;47.994;8.820;2022-08-23T13:47:48;31.50;33.10
7384;DHT22;3733;47.994;8.820;2022-08-23T13:50:21;31.60;33.30
7384;DHT22;3733;47.994;8.820;2022-08-23T13:52:47;31.60;33.60
7384;DHT22;3733;47.994;8.820;2022-08-23T13:55:13;31.60;33.30
7384;DHT22;3733;47.994;8.820;2022-08-23T13:57:38;31.60;33.70
7384;DHT22;3733;47.994;8.820;2022-08-23T14:00:06;31.70;31.70
7384;DHT22;3733;47.994;8.820;2022-08-23T14:02:35;31.70;31.00
7384;DHT22;3733;47.994;8.820;2022-08-23T14:05:06;31.80;30.80
7384;DHT22;3733;47.994;8.820;2022-08-23T14:07:32;31.80;31.20
7384;DHT22;3733;47.994;8.820;2022-08-23T14:09:58;31.80;30.70
7384;DHT22;3733;47.994;8.820;2022-08-23T14:12:27;31.80;31.40
7384;DHT22;3733;47.994;8.820;2022-08-23T14:14:54;31.80;30.00
7384;DHT22;3733;47.994;8.820;2022-08-23T14:17:20;31.60;29.70
7384;DHT22;3733;47.994;8.820;2022-08-23T14:19:46;31.50;32.30
7384;DHT22;3733;47.994;8.820;2022-08-23T14:22:13;31.70;32.50
7384;DHT22;3733;47.994;8.820;2022-08-23T14:24:40;31.70;32.40
7384;DHT22;3733;47.994;8.820;2022-08-23T14:27:07;31.80;32.60
7384;DHT22;3733;47.994;8.820;2022-08-23T14:29:33;31.90;31.70
7384;DHT22;3733;47.994;8.820;2022-08-23T14:31:59;32.00;31.00
7384;DHT22;3733;47.994;8.820;2022-08-23T14:34:29;32.00;32.50
7384;DHT22;3733;47.994;8.820;2022-08-23T14:36:55;32.10;31.60
7384;DHT22;3733;47.994;8.820;2022-08-23T14:39:21;32.20;31.10
7384;DHT22;3733;47.994;8.820;2022-08-23T14:41:47;32.20;31.30
7384;DHT22;3733;47.994;8.820;2022-08-23T14:44:14;32.30;31.00
7384;DHT22;3733;47.994;8.820;2022-08-23T14:46:42;32.30;31.30
7384;DHT22;3733;47.994;8.820;2022-08-23T14:49:08;32.30;32.20
7384;DHT22;3733;47.994;8.820;2022-08-23T14:51:37;32.30;32.30
7384;DHT22;3733;47.994;8.820;2022-08-23T14:54:05;32.40;32.60
7384;DHT22;3733;47.994;8.820;2022-08-23T14:56:31;32.40;32.20
7384;DHT22;3733;47.994;8.820;2022-08-23T14:58:58;32.40;30.50
7384;DHT22;3733;47.994;8.820;2022-08-23T15:01:24;32.40;31.00
7384;DHT22;3733;47.994;8.820;2022-08-23T15:03:50;32.40;30.70
7384;DHT22;3733;47.994;8.820;2022-08-23T15:06:17;32.50;31.50
7384;DHT22;3733;47.994;8.820;2022-08-23T15:08:43;32.50;31.10
7384;DHT22;3733;47.994;8.820;2022-08-23T15:11:10;32.60;32.20
7384;DHT22;3733;47.994;8.820;2022-08-23T15:13:36;32.60;32.90
7384;DHT22;3733;47.994;8.820;2022-08-23T15:16:04;32.70;31.10
7384;DHT22;3733;47.994;8.820;2022-08-23T15:18:31;32.60;30.80
7384;DHT22;3733;47.994;8.820;2022-08-23T15:20:58;32.60;32.30
7384;DHT22;3733;47.994;8.820;2022-08-23T15:23:23;32.60;32.30
7384;DHT22;3733;47.994;8.820;2022-08-23T15:25:50;32.60;31.70
7384;DHT22;3733;47.994;8.820;2022-08-23T15:28:17;32.60;31.60
7384;DHT22;3733;47.994;8.820;2022-08-23T15:30:43;32.60;31.10
7384;DHT22;3733;47.994;8.820;2022-08-23T15:33:10;32.60;31.00
7384;DHT22;3733;47.994;8.820;2022-08-23T15:35:49;32.60;31.80
7384;DHT22;3733;47.994;8.820;2022-08-23T15:38:20;32.60;31.90
7384;DHT22;3733;47.994;8.820;2022-08-23T15:40:49;32.60;31.00
7384;DHT22;3733;47.994;8.820;2022-08-23T15:43:16;32.50;31.10
7384;DHT22;3733;47.994;8.820;2022-08-23T15:45:41;32.50;31.70
7384;DHT22;3733;47.994;8.820;2022-08-23T15:48:28;32.40;32.30
7384;DHT22;3733;47.994;8.820;2022-08-23T15:50:57;32.40;32.50
7384;DHT22;3733;47.994;8.820;2022-08-23T15:53:23;32.30;31.30
7384;DHT22;3733;47.994;8.820;2022-08-23T15:55:49;32.20;31.60
7384;DHT22;3733;47.994;8.820;2022-08-23T15:58:19;32.10;31.50
7384;DHT22;3733;47.994;8.820;2022-08-23T16:00:46;32.00;31.80
7384;DHT22;3733;47.994;8.820;2022-08-23T16:03:12;31.80;31.70
7384;DHT22;3733;47.994;8.820;2022-08-23T16:05:39;31.50;31.90
7384;DHT22;3733;47.994;8.820;2022-08-23T16:08:06;31.10;32.80
7384;DHT22;3733;47.994;8.820;2022-08-23T16:10:33;30.60;33.40
7384;DHT22;3733;47.994;8.820;2022-08-23T16:12:59;30.00;34.20
7384;DHT22;3733;47.994;8.820;2022-08-23T16:15:25;29.40;34.50
7384;DHT22;3733;47.994;8.820;2022-08-23T16:17:50;28.80;35.30
7384;DHT22;3733;47.994;8.820;2022-08-23T16:20:16;28.30;36.40
7384;DHT22;3733;47.994;8.820;2022-08-23T16:22:42;27.90;37.70
7384;DHT22;3733;47.994;8.820;2022-08-23T16:25:09;27.60;38.20
7384;DHT22;3733;47.994;8.820;2022-08-23T16:27:35;27.30;37.80
7384;DHT22;3733;47.994;8.820;2022-08-23T16:30:02;27.00;38.40
7384;DHT22;3733;47.994;8.820;2022-08-23T16:32:27;26.80;39.70
7384;DHT22;3733;47.994;8.820;2022-08-23T16:34:53;26.60;40.10
7384;DHT22;3733;47.994;8.820;2022-08-23T16:37:19;26.40;39.90
7384;DHT22;3733;47.994;8.820;2022-08-23T16:39:45;26.20;39.40
7384;DHT22;3733;47.994;8.820;2022-08-23T16:42:11;26.10;41.00
7384;DHT22;3733;47.994;8.820;2022-08-23T16:44:36;26.00;42.00
7384;DHT22;3733;47.994;8.820;2022-08-23T16:47:04;25.90;42.10
7384;DHT22;3733;47.994;8.820;2022-08-23T16:49:30;25.70;41.70
7384;DHT22;3733;47.994;8.820;2022-08-23T16:51:57;25.60;41.70
7384;DHT22;3733;47.994;8.820;2022-08-23T16:54:24;25.60;41.70
7384;DHT22;3733;47.994;8.820;2022-08-23T16:56:49;25.40;42.00
7384;DHT22;3733;47.994;8.820;2022-08-23T16:59:15;25.40;42.20
7384;DHT22;3733;47.994;8.820;2022-08-23T17:01:47;25.30;43.10
7384;DHT22;3733;47.994;8.820;2022-08-23T17:04:15;25.20;43.00
7384;DHT22;3733;47.994;8.820;2022-08-23T17:06:41;25.10;42.30
7384;DHT22;3733;47.994;8.820;2022-08-23T17:09:08;25.10;42.80
7384;DHT22;3733;47.994;8.820;2022-08-23T17:11:34;25.00;43.90
7384;DHT22;3733;47.994;8.820;2022-08-23T17:14:00;24.90;43.40
7384;DHT22;3733;47.994;8.820;2022-08-23T17:16:25;24.80;43.20
7384;DHT22;3733;47.994;8.820;2022-08-23T17:18:51;24.80;43.60
7384;DHT22;3733;47.994;8.820;2022-08-23T17:21:25;24.70;43.30
7384;DHT22;3733;47.994;8.820;2022-08-23T17:23:51;24.60;43.00
7384;DHT22;3733;47.994;8.820;2022-08-23T17:26:17;24.60;43.70
7384;DHT22;3733;47.994;8.820;2022-08-23T17:28:44;24.50;43.60
7384;DHT22;3733;47.994;8.820;2022-08-23T17:31:09;24.40;43.10
7384;DHT22;3733;47.994;8.820;2022-08-23T17:33:35;24.40;43.80
7384;DHT22;3733;47.994;8.820;2022-08-23T17:36:01;24.40;44.10
7384;DHT22;3733;47.994;8.820;2022-08-23T17:38:28;24.30;43.80
7384;DHT22;3733;47.994;8.820;2022-08-23T17:40:54;24.30;43.70
7384;DHT22;3733;47.994;8.820;2022-08-23T17:43:20;24.20;43.90
7384;DHT22;3733;47.994;8.820;2022-08-23T17:45:49;24.10;44.50
7384;DHT22;3733;47.994;8.820;2022-08-23T17:48:16;24.10;44.90
7384;DHT22;3733;47.994;8.820;2022-08-23T17:50:44;24.00;45.20
7384;DHT22;3733;47.994;8.820;2022-08-23T17:53:11;23.90;45.50
7384;DHT22;3733;47.994;8.820;2022-08-23T17:55:39;23.80;45.90
7384;DHT22;3733;47.994;8.820;2022-08-23T17:58:05;23.80;45.70
7384;DHT22;3733;47.994;8.820;2022-08-23T18:00:33;23.70;45.60
7384;DHT22;3733;47.994;8.820;2022-08-23T18:02:59;23.60;45.80
7384;DHT22;3733;47.994;8.820;2022-08-23T18:05:25;23.50;45.80
7384;DHT22;3733;47.994;8.820;2022-08-23T18:07:52;23.50;46.00